Weather at Wilsons Promontory Airport (Yannakie Airport)

Public forecast

Using degrees Celsius for public forecast. Weather courtesy of forecast.io.

Closest aviation weather report (METAR) to Wilsons Promontory Airport (Yannakie Airport)

Closest report is Avalon Airport, 101.3 nm (187.6 km) WNW.

2024/07/21 07:00 (retrieved 26 minutes ago)

YMAV 210700Z AUTO 32011KT 9999 // SCT062 SCT092 14/09 Q1017

Closest aviation forecast (TAF) to Wilsons Promontory Airport (Yannakie Airport)

Closest forecast is Avalon Airport, 101.3 nm (187.6 km) WNW.

2024/07/21 06:06 Ammendment (retrieved 1 hour ago)

TAF AMD YMAV 210504Z 2106/2206 31015KT 9999 -SHRA SCT040 FM210700 35015KT 9999 -SHRA FEW030 SCT050 FM220000 30015G25KT 9999 NSW SCT025